Private Wetterstation Wechselburg
Wetterdaten: Mittwoch, 12.06.2013
Datum Zeit Temp. +2m Bodentemp. Temp.+5cm Temp. Wind Windchill X Diff Temp. Feuchte +2m Feuchte +5cm Sonnenschein Luftdruck Regen Wind Richtung Richtung Sonnenschein UV Taupunkt Windchill Windben
12.06.2013 00:00 11,3 C 22,6 C 12,7 C 11,3 C 11,2 C 0,0 C 86 % 83 % 0 % 1016,5 hPa 0,0 l/m 0,0 km/h (0 Bft) O-NO 67 0 min 0,0 UV-I 9,0 C 11,2 C 0,0 km/h (0 Bft)
12.06.2013 00:05 11,2 C 22,6 C 12,5 C 11,2 C 11,2 C 0,0 C 86 % 83 % 0 % 1016,5 hPa 0,0 l/m 0,0 km/h (0 Bft) N-NO 22 0 min 0,0 UV-I 8,9 C 11,2 C 0,0 km/h (0 Bft)
12.06.2013 00:10 11,1 C 22,5 C 12,5 C 11,1 C 11,0 C 0,0 C 86 % 83 % 0 % 1016,5 hPa 0,0 l/m 0,0 km/h (0 Bft) W-SW 247 0 min 0,0 UV-I 8,8 C 11,0 C 0,0 km/h (0 Bft)
12.06.2013 00:15 11,1 C 22,5 C 12,3 C 11,0 C 10,9 C 0,0 C 86 % 83 % 0 % 1016,6 hPa 0,0 l/m 0,0 km/h (0 Bft) W-NW 292 0 min 0,0 UV-I 8,8 C 10,9 C 0,0 km/h (0 Bft)
12.06.2013 00:20 10,8 C 22,5 C 12,3 C 10,8 C 10,8 C 0,0 C 86 % 83 % 0 % 1016,6 hPa 0,0 l/m 0,0 km/h (0 Bft) W 270 0 min 0,0 UV-I 8,6 C 10,8 C 0,0 km/h (0 Bft)
12.06.2013 00:25 10,8 C 22,6 C 12,3 C 10,8 C 10,8 C 0,0 C 86 % 83 % 0 % 1016,6 hPa 0,0 l/m 0,0 km/h (0 Bft) W 270 0 min 0,0 UV-I 8,6 C 10,8 C 0,0 km/h (0 Bft)
12.06.2013 00:30 10,7 C 22,6 C 12,1 C 10,7 C 10,7 C 0,0 C 86 % 83 % 0 % 1016,6 hPa 0,0 l/m 0,0 km/h (0 Bft) O-NO 67 0 min 0,0 UV-I 8,5 C 10,7 C 0,0 km/h (0 Bft)
12.06.2013 00:35 10,7 C 22,6 C 12,0 C 10,7 C 10,7 C 0,0 C 87 % 83 % 0 % 1016,8 hPa 0,0 l/m 0,0 km/h (0 Bft) O 90 0 min 0,0 UV-I 8,6 C 10,7 C 0,0 km/h (0 Bft)
12.06.2013 00:41 10,7 C 22,6 C 12,1 C 10,9 C 10,9 C 0,2 C 87 % 83 % 0 % 1016,8 hPa 0,0 l/m 0,0 km/h (0 Bft) N 0 0 min 0,0 UV-I 8,6 C 10,9 C 0,0 km/h (0 Bft)
12.06.2013 00:57 10,6 C 22,5 C 12,1 C 10,9 C 10,9 C 0,3 C 87 % 83 % 0 % 1016,9 hPa 0,0 l/m 0,0 km/h (0 Bft) W-NW 292 0 min 0,0 UV-I 8,5 C 10,9 C 0,0 km/h (0 Bft)
12.06.2013 01:00 10,5 C 22,5 C 12,1 C 10,9 C 10,9 C 0,4 C 88 % 83 % 0 % 1016,9 hPa 0,0 l/m 0,0 km/h (0 Bft) W-SW 247 0 min 0,0 UV-I 8,6 C 10,9 C 0,0 km/h (0 Bft)
12.06.2013 01:05 10,4 C 22,5 C 12,0 C 10,9 C 10,9 C 0,5 C 88 % 83 % 0 % 1016,9 hPa 0,0 l/m 0,0 km/h (0 Bft) S-SO 157 0 min 0,0 UV-I 8,5 C 10,9 C 0,0 km/h (0 Bft)
12.06.2013 01:10 10,5 C 22,5 C 12,1 C 10,9 C 10,9 C 0,4 C 88 % 83 % 0 % 1016,9 hPa 0,0 l/m 0,0 km/h (0 Bft) O 90 0 min 0,0 UV-I 8,6 C 10,9 C 0,0 km/h (0 Bft)
12.06.2013 01:15 10,5 C 22,5 C 12,1 C 11,0 C 11,0 C 0,5 C 88 % 84 % 0 % 1017,1 hPa 0,0 l/m 0,0 km/h (0 Bft) W 270 0 min 0,0 UV-I 8,6 C 11,0 C 0,0 km/h (0 Bft)
12.06.2013 01:20 10,4 C 22,5 C 12,2 C 11,0 C 11,0 C 0,6 C 88 % 84 % 0 % 1017,1 hPa 0,0 l/m 0,0 km/h (0 Bft) W 270 0 min 0,0 UV-I 8,5 C 11,0 C 0,0 km/h (0 Bft)
12.06.2013 01:25 10,4 C 22,5 C 12,2 C 10,9 C 10,9 C 0,5 C 88 % 84 % 0 % 1017,1 hPa 0,0 l/m 0,0 km/h (0 Bft) O 90 0 min 0,0 UV-I 8,5 C 10,9 C 0,0 km/h (0 Bft)
12.06.2013 01:30 10,3 C 22,5 C 12,0 C 10,9 C 10,9 C 0,6 C 88 % 84 % 0 % 1017,1 hPa 0,0 l/m 0,0 km/h (0 Bft) S 180 0 min 0,0 UV-I 8,4 C 10,9 C 0,0 km/h (0 Bft)
12.06.2013 01:35 10,3 C 22,5 C 12,1 C 10,9 C 10,9 C 0,6 C 88 % 84 % 0 % 1017,1 hPa 0,0 l/m 0,0 km/h (0 Bft) O-SO 112 0 min 0,0 UV-I 8,4 C 10,9 C 0,0 km/h (0 Bft)
12.06.2013 01:40 10,3 C 22,5 C 12,0 C 10,9 C 10,9 C 0,6 C 88 % 84 % 0 % 1017,1 hPa 0,0 l/m 0,0 km/h (0 Bft) W-SW 247 0 min 0,0 UV-I 8,4 C 10,9 C 0,0 km/h (0 Bft)
12.06.2013 01:45 10,3 C 22,5 C 12,0 C 10,9 C 10,9 C 0,6 C 88 % 84 % 0 % 1017,1 hPa 0,0 l/m 0,0 km/h (0 Bft) W-SW 247 0 min 0,0 UV-I 8,4 C 10,9 C 0,0 km/h (0 Bft)
12.06.2013 01:50 10,3 C 22,4 C 12,0 C 10,9 C 10,9 C 0,6 C 88 % 84 % 0 % 1017,1 hPa 0,0 l/m 0,0 km/h (0 Bft) S-SW 202 0 min 0,0 UV-I 8,4 C 10,9 C 0,0 km/h (0 Bft)
12.06.2013 01:55 10,3 C 22,5 C 12,0 C 10,8 C 10,8 C 0,5 C 88 % 84 % 0 % 1017,3 hPa 0,0 l/m 0,0 km/h (0 Bft) SW 225 0 min 0,0 UV-I 8,4 C 10,8 C 0,0 km/h (0 Bft)
12.06.2013 02:00 10,3 C 22,5 C 11,8 C 10,7 C 10,7 C 0,4 C 88 % 84 % 0 % 1017,3 hPa 0,0 l/m 0,0 km/h (0 Bft) O-NO 67 0 min 0,0 UV-I 8,4 C 10,7 C 0,0 km/h (0 Bft)
12.06.2013 02:05 10,3 C 22,6 C 11,9 C 10,7 C 10,7 C 0,4 C 88 % 84 % 0 % 1017,3 hPa 0,0 l/m 0,0 km/h (0 Bft) O-NO 67 0 min 0,0 UV-I 8,4 C 10,7 C 0,0 km/h (0 Bft)
12.06.2013 02:10 10,3 C 22,5 C 11,9 C 10,7 C 10,7 C 0,4 C 89 % 84 % 0 % 1017,3 hPa 0,0 l/m 0,0 km/h (0 Bft) N-NO 22 0 min 0,0 UV-I 8,6 C 10,7 C 0,0 km/h (0 Bft)
12.06.2013 02:15 10,2 C 22,5 C 11,9 C 10,7 C 10,7 C 0,5 C 89 % 84 % 0 % 1017,3 hPa 0,0 l/m 0,0 km/h (0 Bft) W 270 0 min 0,0 UV-I 8,5 C 10,7 C 0,0 km/h (0 Bft)
12.06.2013 02:20 10,2 C 22,5 C 11,8 C 10,7 C 10,7 C 0,5 C 89 % 84 % 0 % 1017,3 hPa 0,0 l/m 0,0 km/h (0 Bft) NW 315 0 min 0,0 UV-I 8,5 C 10,7 C 0,0 km/h (0 Bft)
12.06.2013 02:25 10,1 C 22,5 C 11,9 C 10,7 C 10,7 C 0,6 C 89 % 84 % 0 % 1017,3 hPa 0,0 l/m 0,0 km/h (0 Bft) N-NW 337 0 min 0,0 UV-I 8,4 C 10,7 C 0,0 km/h (0 Bft)
12.06.2013 02:30 10,1 C 22,5 C 11,9 C 10,5 C 10,5 C 0,4 C 89 % 84 % 0 % 1017,3 hPa 0,0 l/m 0,0 km/h (0 Bft) O 90 0 min 0,0 UV-I 8,4 C 10,5 C 0,0 km/h (0 Bft)
12.06.2013 02:35 10,1 C 22,5 C 11,8 C 10,5 C 10,5 C 0,4 C 89 % 84 % 0 % 1017,2 hPa 0,0 l/m 0,0 km/h (0 Bft) O-NO 67 0 min 0,0 UV-I 8,4 C 10,5 C 0,0 km/h (0 Bft)
12.06.2013 02:40 10,0 C 22,5 C 11,6 C 10,3 C 10,3 C 0,3 C 89 % 84 % 0 % 1017,2 hPa 0,0 l/m 0,0 km/h (0 Bft) SW 225 0 min 0,0 UV-I 8,3 C 10,3 C 0,0 km/h (0 Bft)
12.06.2013 02:45 10,0 C 22,4 C 11,6 C 10,2 C 10,2 C 0,2 C 89 % 84 % 0 % 1017,2 hPa 0,0 l/m 0,0 km/h (0 Bft) W-SW 247 0 min 0,0 UV-I 8,3 C 10,2 C 0,0 km/h (0 Bft)
12.06.2013 02:50 9,9 C 22,4 C 11,5 C 10,0 C 10,0 C 0,1 C 89 % 84 % 0 % 1017,2 hPa 0,0 l/m 0,0 km/h (0 Bft) W-SW 247 0 min 0,0 UV-I 8,2 C 10,0 C 0,0 km/h (0 Bft)
12.06.2013 02:55 9,7 C 22,4 C 11,5 C 9,9 C 9,9 C 0,2 C 89 % 84 % 0 % 1017,6 hPa 0,0 l/m 0,0 km/h (0 Bft) O-NO 67 0 min 0,0 UV-I 8,0 C 9,9 C 0,0 km/h (0 Bft)
12.06.2013 03:00 9,7 C 22,4 C 11,5 C 9,9 C 9,9 C 0,2 C 89 % 84 % 0 % 1017,6 hPa 0,0 l/m 0,0 km/h (0 Bft) W-SW 247 0 min 0,0 UV-I 8,0 C 9,9 C 0,0 km/h (0 Bft)
12.06.2013 03:05 9,6 C 22,4 C 11,5 C 9,9 C 9,9 C 0,3 C 89 % 84 % 0 % 1017,6 hPa 0,0 l/m 0,0 km/h (0 Bft) W-SW 247 0 min 0,0 UV-I 7,9 C 9,9 C 0,0 km/h (0 Bft)
12.06.2013 03:10 9,6 C 22,4 C 11,2 C 9,8 C 9,8 C 0,2 C 89 % 84 % 0 % 1017,6 hPa 0,0 l/m 0,0 km/h (0 Bft) W-SW 247 0 min 0,0 UV-I 7,9 C 9,8 C 0,0 km/h (0 Bft)
12.06.2013 03:15 9,5 C 22,4 C 11,2 C 9,8 C 9,8 C 0,3 C 89 % 84 % 0 % 1016,9 hPa 0,0 l/m 0,0 km/h (0 Bft) W-SW 247 0 min 0,0 UV-I 7,8 C 9,8 C 0,0 km/h (0 Bft)
12.06.2013 03:20 9,4 C 22,3 C 11,2 C 9,7 C 9,7 C 0,3 C 89 % 84 % 0 % 1016,9 hPa 0,0 l/m 0,0 km/h (0 Bft) SW 225 0 min 0,0 UV-I 7,7 C 9,7 C 0,0 km/h (0 Bft)
12.06.2013 03:25 9,5 C 22,4 C 11,1 C 9,6 C 9,6 C 0,1 C 89 % 84 % 0 % 1016,9 hPa 0,0 l/m 0,0 km/h (0 Bft) W-SW 247 0 min 0,0 UV-I 7,8 C 9,6 C 0,0 km/h (0 Bft)
12.06.2013 03:30 9,3 C 22,3 C 11,1 C 9,5 C 9,5 C 0,2 C 89 % 84 % 0 % 1016,9 hPa 0,0 l/m 0,0 km/h (0 Bft) W-SW 247 0 min 0,0 UV-I 7,6 C 9,5 C 0,0 km/h (0 Bft)
12.06.2013 03:35 9,2 C 22,3 C 11,1 C 9,5 C 9,5 C 0,3 C 89 % 84 % 0 % 1017,2 hPa 0,0 l/m 0,0 km/h (0 Bft) SW 225 0 min 0,0 UV-I 7,5 C 9,5 C 0,0 km/h (0 Bft)
12.06.2013 03:40 9,2 C 22,3 C 11,1 C 9,4 C 9,4 C 0,2 C 89 % 84 % 0 % 1017,2 hPa 0,0 l/m 0,0 km/h (0 Bft) W-SW 247 0 min 0,0 UV-I 7,5 C 9,4 C 0,0 km/h (0 Bft)
12.06.2013 03:45 9,1 C 22,3 C 11,1 C 9,4 C 9,4 C 0,3 C 89 % 84 % 0 % 1017,2 hPa 0,0 l/m 0,0 km/h (0 Bft) W-SW 247 0 min 0,0 UV-I 7,4 C 9,4 C 0,0 km/h (0 Bft)
12.06.2013 03:50 9,1 C 22,3 C 10,9 C 9,3 C 9,3 C 0,2 C 89 % 84 % 0 % 1017,2 hPa 0,0 l/m 0,0 km/h (0 Bft) W-SW 247 0 min 0,0 UV-I 7,4 C 9,3 C 0,0 km/h (0 Bft)
12.06.2013 03:55 9,1 C 22,3 C 10,8 C 9,3 C 9,3 C 0,2 C 89 % 84 % 0 % 1017,6 hPa 0,0 l/m 0,0 km/h (0 Bft) W 270 0 min 0,0 UV-I 7,4 C 9,3 C 0,0 km/h (0 Bft)
12.06.2013 04:00 8,9 C 22,3 C 10,8 C 9,3 C 9,3 C 0,4 C 89 % 84 % 0 % 1017,6 hPa 0,0 l/m 0,0 km/h (0 Bft) W-SW 247 0 min 0,0 UV-I 7,2 C 9,3 C 0,0 km/h (0 Bft)
12.06.2013 04:05 8,9 C 22,3 C 10,7 C 9,2 C 9,2 C 0,3 C 89 % 84 % 0 % 1017,6 hPa 0,0 l/m 0,0 km/h (0 Bft) SW 225 0 min 0,0 UV-I 7,2 C 9,2 C 0,0 km/h (0 Bft)
12.06.2013 04:10 8,8 C 22,3 C 10,6 C 9,1 C 9,1 C 0,3 C 89 % 84 % 0 % 1017,6 hPa 0,0 l/m 0,0 km/h (0 Bft) O-NO 67 0 min 0,0 UV-I 7,1 C 9,1 C 0,0 km/h (0 Bft)
12.06.2013 04:15 8,8 C 22,3 C 10,6 C 9,2 C 9,2 C 0,4 C 89 % 84 % 0 % 1017,5 hPa 0,0 l/m 0,0 km/h (0 Bft) O-NO 67 0 min 0,0 UV-I 7,1 C 9,2 C 0,0 km/h (0 Bft)
12.06.2013 04:20 8,9 C 22,3 C 10,7 C 9,3 C 9,3 C 0,4 C 90 % 84 % 0 % 1017,5 hPa 0,0 l/m 0,0 km/h (0 Bft) O-NO 67 0 min 0,0 UV-I 7,4 C 9,3 C 0,0 km/h (0 Bft)
12.06.2013 04:25 8,9 C 22,3 C 10,7 C 9,3 C 9,3 C 0,4 C 90 % 84 % 0 % 1017,5 hPa 0,0 l/m 0,0 km/h (0 Bft) O 90 0 min 0,0 UV-I 7,4 C 9,3 C 0,0 km/h (0 Bft)
12.06.2013 04:30 8,9 C 22,2 C 10,6 C 9,3 C 9,3 C 0,4 C 90 % 84 % 0 % 1017,5 hPa 0,0 l/m 0,0 km/h (0 Bft) NO 45 0 min 0,0 UV-I 7,4 C 9,3 C 0,0 km/h (0 Bft)
12.06.2013 04:35 8,9 C 22,2 C 10,7 C 9,2 C 9,2 C 0,3 C 90 % 84 % 0 % 1017,2 hPa 0,0 l/m 0,0 km/h (0 Bft) O 90 0 min 0,0 UV-I 7,4 C 9,2 C 0,0 km/h (0 Bft)
12.06.2013 04:40 8,8 C 22,2 C 10,5 C 9,1 C 9,1 C 0,3 C 90 % 85 % 0 % 1017,2 hPa 0,0 l/m 0,0 km/h (0 Bft) W-SW 247 0 min 0,0 UV-I 7,3 C 9,1 C 0,0 km/h (0 Bft)
12.06.2013 04:45 8,9 C 22,2 C 10,5 C 8,9 C 8,9 C 0,0 C 90 % 84 % 0 % 1017,2 hPa 0,0 l/m 0,0 km/h (0 Bft) W-SW 247 0 min 0,0 UV-I 7,4 C 8,9 C 0,0 km/h (0 Bft)
12.06.2013 04:50 8,7 C 22,2 C 10,4 C 8,9 C 8,9 C 0,2 C 89 % 85 % 0 % 1017,2 hPa 0,0 l/m 0,0 km/h (0 Bft) W-SW 247 0 min 0,0 UV-I 7,0 C 8,9 C 0,0 km/h (0 Bft)
12.06.2013 04:55 8,7 C 22,2 C 10,5 C 8,8 C 8,8 C 0,1 C 89 % 85 % 0 % 1017,7 hPa 0,0 l/m 0,0 km/h (0 Bft) W-SW 247 0 min 0,0 UV-I 7,0 C 8,8 C 0,0 km/h (0 Bft)
12.06.2013 05:00 8,5 C 22,2 C 10,3 C 8,7 C 8,7 C 0,2 C 89 % 85 % 0 % 1017,7 hPa 0,0 l/m 0,0 km/h (0 Bft) W-SW 247 0 min 0,0 UV-I 6,8 C 8,7 C 0,0 km/h (0 Bft)
12.06.2013 05:05 8,5 C 22,1 C 10,3 C 8,8 C 8,8 C 0,3 C 89 % 85 % 0 % 1017,7 hPa 0,0 l/m 0,0 km/h (0 Bft) SW 225 0 min 0,0 UV-I 6,8 C 8,8 C 0,0 km/h (0 Bft)
12.06.2013 05:10 8,4 C 22,1 C 10,3 C 8,8 C 8,8 C 0,4 C 89 % 85 % 11 % 1017,7 hPa 0,0 l/m 0,0 km/h (0 Bft) W-SW 247 5 min 0,0 UV-I 6,7 C 8,8 C 0,0 km/h (0 Bft)
12.06.2013 05:15 8,4 C 22,1 C 10,3 C 8,7 C 8,7 C 0,3 C 89 % 85 % 8 % 1017,8 hPa 0,0 l/m 0,0 km/h (0 Bft) W-SW 247 5 min 0,0 UV-I 6,7 C 8,7 C 0,0 km/h (0 Bft)
12.06.2013 05:20 8,3 C 22,1 C 10,3 C 8,7 C 8,7 C 0,4 C 89 % 85 % 11 % 1017,8 hPa 0,0 l/m 0,0 km/h (0 Bft) W-SW 247 0 min 0,0 UV-I 6,6 C 8,7 C 0,0 km/h (0 Bft)
12.06.2013 05:25 8,3 C 22,1 C 10,2 C 8,8 C 8,8 C 0,5 C 89 % 85 % 13 % 1017,8 hPa 0,0 l/m 0,0 km/h (0 Bft) W-SW 247 0 min 0,0 UV-I 6,6 C 8,8 C 0,0 km/h (0 Bft)
12.06.2013 05:30 8,3 C 22,1 C 10,4 C 8,8 C 8,8 C 0,5 C 90 % 85 % 13 % 1017,8 hPa 0,0 l/m 0,0 km/h (0 Bft) S 180 0 min 0,0 UV-I 6,8 C 8,8 C 0,0 km/h (0 Bft)
12.06.2013 05:35 8,2 C 22,1 C 10,3 C 8,9 C 8,9 C 0,7 C 90 % 85 % 18 % 1017,8 hPa 0,0 l/m 0,0 km/h (0 Bft) O 90 0 min 0,0 UV-I 6,7 C 8,9 C 0,0 km/h (0 Bft)
12.06.2013 05:40 8,3 C 22,1 C 10,2 C 8,9 C 8,9 C 0,6 C 90 % 85 % 16 % 1017,8 hPa 0,0 l/m 0,0 km/h (0 Bft) O-NO 67 0 min 0,0 UV-I 6,8 C 8,9 C 0,0 km/h (0 Bft)
12.06.2013 05:45 8,3 C 22,1 C 10,3 C 9,0 C 9,0 C 0,7 C 90 % 85 % 18 % 1017,8 hPa 0,0 l/m 0,0 km/h (0 Bft) W-SW 247 0 min 0,0 UV-I 6,8 C 9,0 C 0,0 km/h (0 Bft)
12.06.2013 05:50 8,3 C 22,1 C 10,3 C 9,1 C 9,1 C 0,8 C 90 % 85 % 21 % 1017,8 hPa 0,0 l/m 0,0 km/h (0 Bft) W-SW 247 0 min 0,0 UV-I 6,8 C 9,1 C 0,0 km/h (0 Bft)
12.06.2013 05:55 8,3 C 22,1 C 10,4 C 9,3 C 9,3 C 1,0 C 90 % 85 % 26 % 1017,6 hPa 0,0 l/m 0,0 km/h (0 Bft) W-SW 247 0 min 0,0 UV-I 6,8 C 9,3 C 0,0 km/h (0 Bft)
12.06.2013 06:00 8,4 C 22,0 C 10,5 C 9,6 C 9,6 C 1,2 C 90 % 85 % 32 % 1017,6 hPa 0,0 l/m 0,0 km/h (0 Bft) SW 225 0 min 0,2 UV-I 6,9 C 9,6 C 0,0 km/h (0 Bft)
12.06.2013 06:05 8,4 C 22,0 C 10,7 C 9,7 C 9,7 C 1,3 C 90 % 85 % 34 % 1017,6 hPa 0,0 l/m 0,0 km/h (0 Bft) W-SW 247 0 min 0,2 UV-I 6,9 C 9,7 C 0,0 km/h (0 Bft)
12.06.2013 06:10 8,6 C 22,0 C 10,9 C 10,0 C 10,0 C 1,4 C 91 % 85 % 37 % 1017,6 hPa 0,0 l/m 0,2 km/h (0 Bft) SW 225 0 min 0,2 UV-I 7,2 C 10,0 C 2,3 km/h (1 Bft)
12.06.2013 06:15 8,8 C 22,0 C 11,0 C 10,1 C 10,1 C 1,3 C 91 % 85 % 34 % 1017,8 hPa 0,0 l/m 0,2 km/h (0 Bft) W-SW 247 0 min 0,2 UV-I 7,4 C 10,1 C 0,0 km/h (0 Bft)
12.06.2013 06:20 9,0 C 22,0 C 11,2 C 10,4 C 10,4 C 1,4 C 91 % 85 % 37 % 1017,8 hPa 0,0 l/m 0,0 km/h (0 Bft) W 270 0 min 0,2 UV-I 7,6 C 10,4 C 0,0 km/h (0 Bft)
12.06.2013 06:25 9,1 C 22,0 C 11,5 C 10,7 C 10,7 C 1,6 C 91 % 85 % 42 % 1017,8 hPa 0,0 l/m 0,2 km/h (0 Bft) W-SW 247 0 min 0,2 UV-I 7,7 C 10,7 C 1,6 km/h (1 Bft)
12.06.2013 06:30 9,3 C 21,9 C 11,6 C 11,0 C 11,0 C 1,7 C 91 % 85 % 45 % 1017,8 hPa 0,0 l/m 0,2 km/h (0 Bft) W 270 0 min 0,3 UV-I 7,9 C 11,0 C 0,0 km/h (0 Bft)
12.06.2013 06:35 9,5 C 21,9 C 11,8 C 11,2 C 11,2 C 1,7 C 91 % 85 % 45 % 1017,8 hPa 0,0 l/m 0,3 km/h (0 Bft) W 270 0 min 0,3 UV-I 8,1 C 11,2 C 0,0 km/h (0 Bft)
12.06.2013 06:41 9,6 C 21,9 C 12,0 C 11,5 C 11,5 C 1,9 C 92 % 85 % 50 % 1017,8 hPa 0,0 l/m 0,5 km/h (0 Bft) N 0 0 min 0,3 UV-I 8,4 C 11,5 C 0,0 km/h (0 Bft)
12.06.2013 07:00 10,2 C 21,7 C 13,1 C 15,2 C 15,2 C 5,0 C 92 % 84 % 100 % 1018,2 hPa 0,0 l/m 0,0 km/h (0 Bft) W-SW 247 19 min 0,0 UV-I 9,0 C 15,2 C 0,0 km/h (0 Bft)
12.06.2013 07:05 10,4 C 21,7 C 13,2 C 16,1 C 16,1 C 5,7 C 92 % 84 % 100 % 1018,2 hPa 0,0 l/m 0,0 km/h (0 Bft) SW 225 5 min 0,0 UV-I 9,2 C 16,1 C 0,0 km/h (0 Bft)
12.06.2013 07:10 10,7 C 21,7 C 13,3 C 17,7 C 17,7 C 7,0 C 92 % 84 % 100 % 1018,2 hPa 0,0 l/m 0,0 km/h (0 Bft) SW 225 5 min 0,0 UV-I 9,5 C 17,7 C 0,0 km/h (0 Bft)
12.06.2013 07:15 10,9 C 21,7 C 13,5 C 18,2 C 18,2 C 7,3 C 92 % 84 % 100 % 1018,3 hPa 0,0 l/m 0,0 km/h (0 Bft) SW 225 5 min 0,0 UV-I 9,7 C 18,2 C 0,0 km/h (0 Bft)
12.06.2013 07:20 11,2 C 21,7 C 13,5 C 17,3 C 17,3 C 6,1 C 92 % 83 % 100 % 1018,3 hPa 0,0 l/m 0,2 km/h (0 Bft) W-SW 247 5 min 0,0 UV-I 9,9 C 17,3 C 0,0 km/h (0 Bft)
12.06.2013 07:25 11,3 C 21,7 C 13,5 C 16,7 C 16,7 C 5,4 C 92 % 83 % 100 % 1018,3 hPa 0,0 l/m 0,2 km/h (0 Bft) W-SW 247 5 min 0,0 UV-I 10,0 C 16,7 C 1,6 km/h (1 Bft)
12.06.2013 07:30 11,6 C 21,7 C 13,6 C 17,3 C 17,3 C 5,7 C 92 % 83 % 100 % 1018,3 hPa 0,0 l/m 0,2 km/h (0 Bft) O-SO 112 5 min 0,0 UV-I 10,3 C 17,3 C 0,0 km/h (0 Bft)
12.06.2013 07:35 11,8 C 21,6 C 13,9 C 18,3 C 18,3 C 6,5 C 92 % 83 % 100 % 1018,4 hPa 0,0 l/m 0,2 km/h (0 Bft) S-SO 157 5 min 0,0 UV-I 10,5 C 18,3 C 0,0 km/h (0 Bft)
12.06.2013 07:40 12,1 C 21,6 C 14,0 C 20,1 C 20,1 C 8,0 C 93 % 83 % 100 % 1018,4 hPa 0,0 l/m 0,2 km/h (0 Bft) W 270 5 min 0,0 UV-I 11,0 C 20,1 C 1,6 km/h (1 Bft)
12.06.2013 07:45 12,3 C 21,6 C 14,0 C 20,6 C 20,6 C 8,3 C 93 % 83 % 100 % 1018,4 hPa 0,0 l/m 0,2 km/h (0 Bft) SW 225 5 min 0,0 UV-I 11,2 C 20,6 C 0,0 km/h (0 Bft)
12.06.2013 07:50 12,7 C 21,6 C 14,3 C 21,6 C 21,6 C 8,9 C 93 % 83 % 100 % 1018,4 hPa 0,0 l/m 0,0 km/h (0 Bft) S-SW 202 5 min 0,0 UV-I 11,6 C 21,6 C 0,0 km/h (0 Bft)
12.06.2013 07:55 12,8 C 21,6 C 14,2 C 21,9 C 21,9 C 9,1 C 93 % 83 % 100 % 1018,7 hPa 0,0 l/m 0,2 km/h (0 Bft) W-SW 247 5 min 0,0 UV-I 11,7 C 21,9 C 0,0 km/h (0 Bft)
12.06.2013 08:00 13,2 C 21,6 C 14,5 C 22,4 C 22,4 C 9,2 C 93 % 83 % 100 % 1018,7 hPa 0,0 l/m 0,3 km/h (0 Bft) S-SO 157 5 min 0,0 UV-I 12,1 C 22,4 C 0,0 km/h (0 Bft)
12.06.2013 08:05 13,7 C 21,6 C 14,5 C 22,9 C 22,9 C 9,2 C 93 % 83 % 100 % 1018,7 hPa 0,0 l/m 0,2 km/h (0 Bft) S 180 5 min 0,0 UV-I 12,6 C 22,9 C 0,0 km/h (0 Bft)
12.06.2013 08:10 14,5 C 21,5 C 14,7 C 23,8 C 23,8 C 9,3 C 93 % 83 % 100 % 1018,7 hPa 0,0 l/m 0,2 km/h (0 Bft) SW 225 5 min 0,0 UV-I 13,4 C 23,8 C 0,0 km/h (0 Bft)
12.06.2013 08:15 14,6 C 21,4 C 14,8 C 24,1 C 24,1 C 9,5 C 92 % 83 % 100 % 1018,4 hPa 0,0 l/m 0,3 km/h (0 Bft) W-SW 247 5 min 0,0 UV-I 13,3 C 24,1 C 1,6 km/h (1 Bft)
12.06.2013 08:20 15,1 C 21,4 C 15,0 C 24,4 C 24,4 C 9,3 C 92 % 83 % 100 % 1018,4 hPa 0,0 l/m 0,8 km/h (0 Bft) W 270 5 min 0,0 UV-I 13,8 C 24,4 C 2,7 km/h (1 Bft)
12.06.2013 08:25 15,3 C 21,4 C 15,3 C 24,7 C 24,7 C 9,4 C 91 % 83 % 100 % 1018,4 hPa 0,0 l/m 1,0 km/h (0 Bft) W-SW 247 5 min 0,0 UV-I 13,8 C 24,7 C 0,0 km/h (0 Bft)
12.06.2013 08:30 15,7 C 21,4 C 15,6 C 25,1 C 25,1 C 9,4 C 90 % 82 % 100 % 1018,4 hPa 0,0 l/m 0,6 km/h (0 Bft) SO 135 5 min 0,0 UV-I 14,1 C 25,1 C 0,0 km/h (0 Bft)
12.06.2013 08:35 15,9 C 21,4 C 15,7 C 25,7 C 25,7 C 9,8 C 89 % 82 % 100 % 1018,6 hPa 0,0 l/m 0,3 km/h (0 Bft) W-SW 247 5 min 0,0 UV-I 14,1 C 25,7 C 0,0 km/h (0 Bft)
12.06.2013 08:40 16,5 C 21,4 C 15,8 C 26,3 C 26,3 C 9,8 C 88 % 82 % 100 % 1018,6 hPa 0,0 l/m 0,3 km/h (0 Bft) W 270 5 min 0,0 UV-I 14,5 C 26,3 C 3,9 km/h (1 Bft)
12.06.2013 08:45 16,9 C 21,4 C 15,9 C 26,3 C 26,3 C 9,4 C 86 % 82 % 100 % 1018,6 hPa 0,0 l/m 0,8 km/h (0 Bft) SW 225 5 min 0,0 UV-I 14,5 C 26,3 C 1,9 km/h (1 Bft)
12.06.2013 08:50 17,3 C 21,4 C 15,9 C 26,2 C 26,2 C 8,9 C 84 % 82 % 100 % 1018,6 hPa 0,0 l/m 1,6 km/h (1 Bft) SW 225 5 min 0,0 UV-I 14,6 C 26,2 C 4,7 km/h (1 Bft)
12.06.2013 08:55 17,6 C 21,4 C 15,9 C 26,2 C 26,2 C 8,6 C 83 % 82 % 100 % 1018,7 hPa 0,0 l/m 1,8 km/h (1 Bft) SW 225 5 min 0,0 UV-I 14,7 C 26,2 C 0,0 km/h (0 Bft)
12.06.2013 09:00 18,0 C 21,4 C 16,1 C 27,0 C 27,0 C 9,0 C 82 % 82 % 100 % 1018,7 hPa 0,0 l/m 0,6 km/h (0 Bft) SW 225 5 min 0,0 UV-I 14,9 C 27,0 C 1,9 km/h (1 Bft)
12.06.2013 09:05 18,3 C 21,4 C 16,0 C 27,5 C 27,5 C 9,2 C 81 % 82 % 100 % 1018,7 hPa 0,0 l/m 0,3 km/h (0 Bft) S-SW 202 5 min 0,0 UV-I 15,0 C 27,5 C 2,4 km/h (1 Bft)
12.06.2013 09:10 18,8 C 21,3 C 16,3 C 28,1 C 28,1 C 9,3 C 80 % 81 % 100 % 1018,7 hPa 0,0 l/m 0,2 km/h (0 Bft) NW 315 5 min 0,0 UV-I 15,3 C 28,1 C 0,0 km/h (0 Bft)
12.06.2013 09:15 19,3 C 21,4 C 16,3 C 28,4 C 28,4 C 9,1 C 78 % 81 % 100 % 1018,8 hPa 0,0 l/m 0,3 km/h (0 Bft) W 270 5 min 0,0 UV-I 15,4 C 28,4 C 2,1 km/h (1 Bft)
12.06.2013 09:20 19,6 C 21,4 C 16,4 C 28,6 C 28,6 C 9,0 C 77 % 82 % 100 % 1018,8 hPa 0,0 l/m 0,5 km/h (0 Bft) S 180 5 min 0,0 UV-I 15,5 C 28,6 C 0,0 km/h (0 Bft)
12.06.2013 09:25 19,9 C 21,4 C 16,6 C 28,9 C 28,9 C 9,0 C 76 % 82 % 100 % 1018,8 hPa 0,0 l/m 0,3 km/h (0 Bft) N 360 5 min 0,0 UV-I 15,5 C 28,9 C 0,0 km/h (0 Bft)
12.06.2013 09:30 20,2 C 21,4 C 16,7 C 29,0 C 29,0 C 8,8 C 74 % 81 % 100 % 1018,8 hPa 0,0 l/m 0,5 km/h (0 Bft) W-SW 247 5 min 0,0 UV-I 15,4 C 29,0 C 1,6 km/h (1 Bft)
12.06.2013 09:35 20,3 C 21,4 C 16,7 C 28,8 C 28,8 C 8,5 C 74 % 81 % 100 % 1018,6 hPa 0,0 l/m 1,0 km/h (0 Bft) SW 225 5 min 0,0 UV-I 15,5 C 28,8 C 3,1 km/h (1 Bft)
12.06.2013 09:40 20,3 C 21,4 C 16,9 C 28,9 C 28,9 C 8,6 C 73 % 81 % 100 % 1018,6 hPa 0,0 l/m 1,0 km/h (0 Bft) S-SW 202 5 min 0,0 UV-I 15,3 C 28,9 C 2,3 km/h (1 Bft)
12.06.2013 09:45 20,3 C 21,4 C 16,9 C 29,2 C 29,2 C 8,9 C 72 % 81 % 100 % 1018,6 hPa 0,0 l/m 0,6 km/h (0 Bft) W 270 5 min 0,0 UV-I 15,1 C 29,2 C 2,3 km/h (1 Bft)
12.06.2013 09:50 20,3 C 21,4 C 17,1 C 29,2 C 29,2 C 8,9 C 71 % 81 % 100 % 1018,6 hPa 0,0 l/m 0,6 km/h (0 Bft) S 180 5 min 0,0 UV-I 14,9 C 29,2 C 0,0 km/h (0 Bft)
12.06.2013 09:55 20,3 C 21,4 C 17,0 C 29,2 C 29,2 C 8,9 C 70 % 81 % 100 % 1018,2 hPa 0,0 l/m 0,8 km/h (0 Bft) W-SW 247 5 min 0,0 UV-I 14,6 C 29,2 C 3,2 km/h (1 Bft)
12.06.2013 10:00 20,3 C 21,3 C 17,1 C 28,9 C 28,9 C 8,6 C 71 % 80 % 100 % 1018,2 hPa 0,0 l/m 1,1 km/h (1 Bft) N-NW 337 5 min 0,0 UV-I 14,9 C 28,9 C 0,0 km/h (0 Bft)
12.06.2013 10:05 20,4 C 21,3 C 17,3 C 29,0 C 29,0 C 8,6 C 70 % 80 % 100 % 1018,2 hPa 0,0 l/m 1,1 km/h (1 Bft) SW 225 5 min 0,0 UV-I 14,7 C 29,0 C 3,9 km/h (1 Bft)
12.06.2013 10:10 20,4 C 21,3 C 17,2 C 29,0 C 29,0 C 8,6 C 69 % 80 % 100 % 1018,2 hPa 0,0 l/m 1,0 km/h (0 Bft) W-SW 247 5 min 0,0 UV-I 14,5 C 29,0 C 3,7 km/h (1 Bft)
12.06.2013 10:15 20,4 C 21,3 C 17,3 C 29,2 C 29,2 C 8,8 C 69 % 80 % 100 % 1018,6 hPa 0,0 l/m 1,0 km/h (0 Bft) SO 135 5 min 0,0 UV-I 14,5 C 29,2 C 0,0 km/h (0 Bft)
12.06.2013 10:20 20,4 C 21,3 C 17,5 C 29,1 C 29,1 C 8,7 C 69 % 80 % 100 % 1018,6 hPa 0,0 l/m 1,6 km/h (1 Bft) W-SW 247 5 min 0,0 UV-I 14,5 C 29,1 C 5,3 km/h (1 Bft)
12.06.2013 10:25 20,5 C 21,4 C 17,4 C 28,7 C 28,7 C 8,2 C 69 % 80 % 100 % 1018,6 hPa 0,0 l/m 2,1 km/h (1 Bft) SW 225 5 min 0,0 UV-I 14,6 C 28,7 C 4,0 km/h (1 Bft)
12.06.2013 10:30 20,7 C 21,4 C 17,6 C 29,0 C 29,0 C 8,3 C 68 % 80 % 100 % 1018,6 hPa 0,0 l/m 1,4 km/h (1 Bft) W 270 5 min 0,0 UV-I 14,6 C 29,0 C 5,8 km/h (2 Bft)
12.06.2013 10:35 21,1 C 21,4 C 17,7 C 29,2 C 29,2 C 8,1 C 67 % 79 % 100 % 1018,6 hPa 0,0 l/m 0,6 km/h (0 Bft) O-SO 112 5 min 0,0 UV-I 14,7 C 29,2 C 1,8 km/h (1 Bft)
12.06.2013 10:40 21,3 C 21,4 C 17,8 C 29,1 C 29,1 C 7,8 C 65 % 79 % 100 % 1018,6 hPa 0,0 l/m 1,3 km/h (1 Bft) W-SW 247 5 min 0,0 UV-I 14,4 C 29,1 C 6,3 km/h (2 Bft)
12.06.2013 10:45 21,2 C 21,4 C 17,8 C 28,6 C 28,6 C 7,4 C 64 % 79 % 100 % 1018,6 hPa 0,0 l/m 2,6 km/h (1 Bft) W 270 5 min 0,0 UV-I 14,1 C 28,6 C 4,5 km/h (1 Bft)
12.06.2013 10:50 21,3 C 21,4 C 17,9 C 28,4 C 28,4 C 7,1 C 64 % 79 % 100 % 1018,6 hPa 0,0 l/m 2,9 km/h (1 Bft) W 270 5 min 0,0 UV-I 14,2 C 28,4 C 3,7 km/h (1 Bft)
12.06.2013 10:55 21,3 C 21,4 C 18,0 C 28,4 C 28,4 C 7,1 C 64 % 79 % 100 % 1018,0 hPa 0,0 l/m 2,4 km/h (1 Bft) S-SW 202 5 min 0,0 UV-I 14,2 C 28,4 C 3,7 km/h (1 Bft)
12.06.2013 11:00 21,4 C 21,5 C 18,0 C 28,4 C 28,4 C 7,0 C 62 % 79 % 100 % 1018,0 hPa 0,0 l/m 2,3 km/h (1 Bft) W 270 5 min 0,1 UV-I 13,8 C 28,4 C 2,9 km/h (1 Bft)
12.06.2013 11:05 21,5 C 21,5 C 18,1 C 28,5 C 28,5 C 7,0 C 62 % 78 % 100 % 1018,0 hPa 0,0 l/m 2,3 km/h (1 Bft) O-SO 112 5 min 0,1 UV-I 13,9 C 28,5 C 0,0 km/h (0 Bft)
12.06.2013 11:10 21,9 C 21,5 C 18,4 C 28,8 C 28,8 C 6,9 C 62 % 77 % 100 % 1018,0 hPa 0,0 l/m 1,3 km/h (1 Bft) S-SO 157 5 min 0,1 UV-I 14,3 C 28,8 C 1,9 km/h (1 Bft)
12.06.2013 11:15 22,2 C 21,5 C 18,6 C 29,3 C 29,3 C 7,1 C 62 % 77 % 100 % 1018,3 hPa 0,0 l/m 0,3 km/h (0 Bft) W-SW 247 5 min 0,1 UV-I 14,6 C 29,3 C 2,7 km/h (1 Bft)
12.06.2013 11:20 22,5 C 21,4 C 18,9 C 29,9 C 29,9 C 7,4 C 61 % 77 % 100 % 1018,3 hPa 0,0 l/m 0,5 km/h (0 Bft) S-SO 157 5 min 0,1 UV-I 14,6 C 29,9 C 0,0 km/h (0 Bft)
12.06.2013 11:25 22,4 C 21,4 C 18,8 C 30,1 C 30,1 C 7,7 C 60 % 77 % 100 % 1018,3 hPa 0,0 l/m 1,0 km/h (0 Bft) S 180 5 min 0,1 UV-I 14,2 C 30,1 C 2,1 km/h (1 Bft)
12.06.2013 11:30 22,3 C 21,4 C 18,7 C 30,1 C 30,1 C 7,8 C 60 % 76 % 100 % 1018,3 hPa 0,0 l/m 1,1 km/h (1 Bft) O-NO 67 5 min 0,0 UV-I 14,2 C 30,1 C 2,1 km/h (1 Bft)
12.06.2013 11:35 22,2 C 21,5 C 18,8 C 29,9 C 29,9 C 7,7 C 60 % 76 % 100 % 1018,6 hPa 0,0 l/m 1,0 km/h (0 Bft) S 180 5 min 0,0 UV-I 14,1 C 29,9 C 1,9 km/h (1 Bft)
12.06.2013 11:40 22,0 C 21,5 C 18,8 C 30,3 C 30,3 C 8,3 C 60 % 76 % 100 % 1018,6 hPa 0,0 l/m 1,0 km/h (0 Bft) SW 225 5 min 0,0 UV-I 13,9 C 30,3 C 4,8 km/h (1 Bft)
12.06.2013 11:45 22,1 C 21,5 C 18,9 C 29,5 C 29,5 C 7,4 C 59 % 76 % 100 % 1018,6 hPa 0,0 l/m 1,6 km/h (1 Bft) SW 225 5 min 0,0 UV-I 13,7 C 29,5 C 3,4 km/h (1 Bft)
12.06.2013 11:50 22,0 C 21,5 C 18,9 C 28,2 C 28,2 C 6,2 C 59 % 75 % 100 % 1018,6 hPa 0,0 l/m 2,6 km/h (1 Bft) N-NW 337 5 min 0,0 UV-I 13,6 C 28,2 C 0,0 km/h (0 Bft)
12.06.2013 11:55 22,1 C 21,5 C 19,1 C 27,8 C 27,8 C 5,7 C 59 % 75 % 100 % 1018,8 hPa 0,0 l/m 1,9 km/h (1 Bft) W-SW 247 5 min 0,0 UV-I 13,7 C 27,8 C 1,6 km/h (1 Bft)
12.06.2013 12:00 22,2 C 21,5 C 19,3 C 28,3 C 28,3 C 6,1 C 59 % 75 % 100 % 1018,8 hPa 0,0 l/m 2,3 km/h (1 Bft) S 180 5 min 0,0 UV-I 13,8 C 28,3 C 9,7 km/h (2 Bft)
12.06.2013 12:05 22,2 C 21,5 C 19,4 C 27,9 C 27,9 C 5,7 C 58 % 74 % 100 % 1018,8 hPa 0,0 l/m 3,4 km/h (1 Bft) W-SW 247 5 min 0,0 UV-I 13,5 C 27,9 C 6,8 km/h (2 Bft)
12.06.2013 12:10 22,3 C 21,5 C 19,5 C 26,2 C 26,2 C 3,9 C 58 % 73 % 100 % 1018,8 hPa 0,0 l/m 1,9 km/h (1 Bft) SO 135 5 min 0,0 UV-I 13,6 C 26,2 C 3,2 km/h (1 Bft)
12.06.2013 12:15 22,5 C 21,6 C 19,7 C 27,0 C 27,0 C 4,5 C 58 % 73 % 100 % 1018,5 hPa 0,0 l/m 1,3 km/h (1 Bft) S-SW 202 5 min 0,0 UV-I 13,8 C 27,0 C 4,5 km/h (1 Bft)
12.06.2013 12:20 22,7 C 21,6 C 19,7 C 27,8 C 27,8 C 5,1 C 56 % 72 % 100 % 1018,5 hPa 0,0 l/m 2,3 km/h (1 Bft) NW 315 5 min 0,0 UV-I 13,5 C 27,8 C 0,0 km/h (0 Bft)
12.06.2013 12:25 22,9 C 21,6 C 19,9 C 28,4 C 28,4 C 5,5 C 56 % 73 % 100 % 1018,5 hPa 0,0 l/m 1,9 km/h (1 Bft) SO 135 5 min 0,0 UV-I 13,6 C 28,4 C 2,6 km/h (1 Bft)
12.06.2013 12:30 23,3 C 21,6 C 19,9 C 29,1 C 29,1 C 5,8 C 54 % 73 % 100 % 1018,5 hPa 0,0 l/m 1,0 km/h (0 Bft) N-NW 337 5 min 0,1 UV-I 13,5 C 29,1 C 3,4 km/h (1 Bft)
12.06.2013 12:35 23,4 C 21,7 C 20,1 C 29,3 C 29,3 C 5,9 C 55 % 72 % 100 % 1017,9 hPa 0,0 l/m 1,3 km/h (1 Bft) S-SW 202 5 min 0,1 UV-I 13,8 C 29,3 C 2,4 km/h (1 Bft)
12.06.2013 12:41 23,7 C 21,7 C 20,3 C 29,5 C 29,5 C 5,8 C 55 % 73 % 100 % 1017,9 hPa 0,0 l/m 1,8 km/h (1 Bft) N 0 6 min 0,1 UV-I 14,1 C 29,5 C 3,1 km/h (1 Bft)
12.06.2013 13:00 24,4 C 21,7 C 20,9 C 29,5 C 29,5 C 5,1 C 53 % 72 % 100 % 1018,5 hPa 0,0 l/m 1,6 km/h (1 Bft) S-SO 157 19 min 0,1 UV-I 14,2 C 29,5 C 0,0 km/h (0 Bft)
12.06.2013 13:05 24,8 C 21,8 C 21,1 C 29,7 C 29,7 C 4,9 C 54 % 72 % 100 % 1018,5 hPa 0,0 l/m 1,0 km/h (0 Bft) O-SO 112 5 min 0,1 UV-I 14,8 C 29,7 C 0,0 km/h (0 Bft)
12.06.2013 13:10 24,7 C 21,8 C 21,3 C 29,7 C 29,7 C 5,0 C 49 % 67 % 100 % 1018,5 hPa 0,0 l/m 1,6 km/h (1 Bft) O-NO 67 5 min 0,1 UV-I 13,3 C 29,7 C 5,3 km/h (1 Bft)
12.06.2013 13:15 24,1 C 21,8 C 21,5 C 29,2 C 29,2 C 5,1 C 51 % 68 % 100 % 1018,5 hPa 0,0 l/m 2,3 km/h (1 Bft) O-NO 67 5 min 0,1 UV-I 13,3 C 29,2 C 1,9 km/h (1 Bft)
12.06.2013 13:20 23,5 C 21,8 C 21,3 C 28,4 C 28,4 C 4,9 C 52 % 68 % 100 % 1018,5 hPa 0,0 l/m 3,4 km/h (1 Bft) NO 45 5 min 0,0 UV-I 13,1 C 28,4 C 4,8 km/h (1 Bft)
12.06.2013 13:25 23,2 C 21,9 C 21,3 C 28,0 C 28,0 C 4,8 C 51 % 64 % 100 % 1018,5 hPa 0,0 l/m 3,7 km/h (1 Bft) O-NO 67 5 min 0,0 UV-I 12,5 C 28,0 C 5,5 km/h (1 Bft)
12.06.2013 13:30 22,9 C 21,9 C 21,1 C 26,3 C 26,3 C 3,4 C 55 % 69 % 89 % 1018,5 hPa 0,0 l/m 3,5 km/h (1 Bft) O-NO 67 5 min 0,0 UV-I 13,4 C 26,3 C 5,0 km/h (1 Bft)
12.06.2013 13:35 22,6 C 21,9 C 20,8 C 25,2 C 25,2 C 2,6 C 55 % 70 % 68 % 1018,3 hPa 0,0 l/m 3,1 km/h (1 Bft) O-NO 67 0 min 0,0 UV-I 13,1 C 25,2 C 3,1 km/h (1 Bft)
12.06.2013 13:40 22,5 C 21,8 C 20,6 C 24,5 C 24,5 C 2,0 C 57 % 69 % 53 % 1018,3 hPa 0,0 l/m 1,4 km/h (1 Bft) O 90 0 min 0,0 UV-I 13,5 C 24,5 C 0,0 km/h (0 Bft)
12.06.2013 13:45 22,2 C 21,9 C 20,5 C 24,2 C 24,2 C 2,0 C 55 % 70 % 53 % 1018,3 hPa 0,0 l/m 1,6 km/h (1 Bft) N-NO 22 0 min 0,0 UV-I 12,7 C 24,2 C 0,0 km/h (0 Bft)
12.06.2013 13:50 22,3 C 21,9 C 20,5 C 24,1 C 24,1 C 1,8 C 58 % 70 % 47 % 1018,3 hPa 0,0 l/m 1,3 km/h (1 Bft) O-NO 67 0 min 0,0 UV-I 13,6 C 24,1 C 0,0 km/h (0 Bft)
12.06.2013 13:55 22,3 C 21,9 C 20,5 C 24,0 C 24,0 C 1,7 C 59 % 70 % 45 % 1017,7 hPa 0,0 l/m 0,0 km/h (0 Bft) NO 45 0 min 0,0 UV-I 13,9 C 24,0 C 0,0 km/h (0 Bft)
12.06.2013 14:00 22,3 C 21,9 C 20,3 C 24,0 C 24,0 C 1,7 C 61 % 72 % 45 % 1017,7 hPa 0,0 l/m 0,0 km/h (0 Bft) S 180 0 min 0,0 UV-I 14,4 C 24,0 C 0,0 km/h (0 Bft)
12.06.2013 14:05 22,3 C 21,9 C 20,3 C 24,0 C 24,0 C 1,7 C 60 % 73 % 45 % 1017,7 hPa 0,0 l/m 0,0 km/h (0 Bft) NW 315 0 min 0,0 UV-I 14,2 C 24,0 C 0,0 km/h (0 Bft)
12.06.2013 14:10 22,3 C 21,9 C 20,3 C 23,9 C 23,9 C 1,6 C 61 % 72 % 42 % 1017,7 hPa 0,0 l/m 0,2 km/h (0 Bft) O-NO 67 0 min 0,0 UV-I 14,4 C 23,9 C 5,5 km/h (1 Bft)
12.06.2013 14:15 22,0 C 21,9 C 20,3 C 23,7 C 23,7 C 1,7 C 60 % 72 % 45 % 1018,1 hPa 0,0 l/m 0,5 km/h (0 Bft) O 90 0 min 0,0 UV-I 13,9 C 23,7 C 0,0 km/h (0 Bft)
12.06.2013 14:20 21,9 C 21,9 C 20,3 C 23,8 C 23,8 C 1,9 C 62 % 72 % 50 % 1018,1 hPa 0,0 l/m 0,8 km/h (0 Bft) O 90 0 min 0,0 UV-I 14,3 C 23,8 C 0,0 km/h (0 Bft)
12.06.2013 14:25 21,9 C 21,9 C 20,5 C 24,4 C 24,4 C 2,5 C 62 % 72 % 66 % 1018,1 hPa 0,0 l/m 0,3 km/h (0 Bft) N-NO 22 0 min 0,0 UV-I 14,3 C 24,4 C 0,0 km/h (0 Bft)
12.06.2013 14:30 22,1 C 22,0 C 20,6 C 25,0 C 25,0 C 2,9 C 62 % 72 % 76 % 1018,1 hPa 0,0 l/m 0,2 km/h (0 Bft) O-SO 112 0 min 0,0 UV-I 14,5 C 25,0 C 0,0 km/h (0 Bft)
12.06.2013 14:35 22,3 C 22,0 C 20,7 C 25,4 C 25,4 C 3,1 C 59 % 71 % 82 % 1017,9 hPa 0,0 l/m 0,3 km/h (0 Bft) N-NO 22 0 min 0,0 UV-I 13,9 C 25,4 C 1,9 km/h (1 Bft)
12.06.2013 14:40 22,5 C 22,0 C 20,9 C 25,7 C 25,7 C 3,2 C 61 % 71 % 84 % 1017,9 hPa 0,0 l/m 0,6 km/h (0 Bft) SO 135 0 min 0,0 UV-I 14,6 C 25,7 C 0,0 km/h (0 Bft)
12.06.2013 14:45 22,7 C 22,0 C 20,9 C 26,6 C 26,6 C 3,9 C 59 % 71 % 100 % 1017,9 hPa 0,0 l/m 1,1 km/h (1 Bft) N-NO 22 5 min 0,0 UV-I 14,3 C 26,6 C 2,1 km/h (1 Bft)
12.06.2013 14:50 23,2 C 22,1 C 21,2 C 27,9 C 27,9 C 4,7 C 58 % 72 % 100 % 1017,9 hPa 0,0 l/m 1,1 km/h (1 Bft) W 270 5 min 0,0 UV-I 14,5 C 27,9 C 1,9 km/h (1 Bft)
12.06.2013 14:55 23,5 C 22,1 C 21,5 C 29,2 C 29,2 C 5,7 C 57 % 71 % 100 % 1017,8 hPa 0,0 l/m 1,8 km/h (1 Bft) SW 225 5 min 0,0 UV-I 14,5 C 29,2 C 5,1 km/h (1 Bft)
12.06.2013 15:00 23,8 C 22,1 C 21,6 C 29,5 C 29,5 C 5,7 C 55 % 70 % 100 % 1017,8 hPa 0,0 l/m 2,4 km/h (1 Bft) O-NO 67 5 min 0,0 UV-I 14,2 C 29,5 C 0,0 km/h (0 Bft)
12.06.2013 15:05 23,6 C 22,1 C 21,7 C 29,4 C 29,4 C 5,8 C 53 % 69 % 100 % 1017,8 hPa 0,0 l/m 2,6 km/h (1 Bft) O-NO 67 5 min 0,0 UV-I 13,4 C 29,4 C 3,2 km/h (1 Bft)
12.06.2013 15:10 23,7 C 22,1 C 21,7 C 29,8 C 29,8 C 6,1 C 54 % 68 % 100 % 1017,8 hPa 0,0 l/m 1,3 km/h (1 Bft) W-SW 247 5 min 0,0 UV-I 13,8 C 29,8 C 1,9 km/h (1 Bft)
12.06.2013 15:15 24,3 C 22,1 C 21,6 C 30,2 C 30,2 C 5,9 C 52 % 69 % 100 % 1017,6 hPa 0,0 l/m 1,8 km/h (1 Bft) W 270 5 min 0,0 UV-I 13,8 C 30,2 C 3,2 km/h (1 Bft)
12.06.2013 15:20 24,3 C 22,1 C 21,8 C 30,4 C 30,4 C 6,1 C 52 % 68 % 100 % 1017,6 hPa 0,0 l/m 1,8 km/h (1 Bft) SW 225 5 min 0,0 UV-I 13,8 C 30,4 C 0,0 km/h (0 Bft)
12.06.2013 15:25 24,4 C 22,2 C 21,9 C 30,5 C 30,5 C 6,1 C 53 % 67 % 100 % 1017,6 hPa 0,0 l/m 1,0 km/h (0 Bft) O-SO 112 5 min 0,0 UV-I 14,2 C 30,5 C 2,1 km/h (1 Bft)
12.06.2013 15:30 24,8 C 22,2 C 22,0 C 30,9 C 30,9 C 6,1 C 52 % 68 % 100 % 1017,6 hPa 0,0 l/m 1,3 km/h (1 Bft) S-SW 202 5 min 0,0 UV-I 14,3 C 30,9 C 6,0 km/h (2 Bft)
12.06.2013 15:35 25,3 C 22,2 C 21,9 C 30,5 C 30,5 C 5,2 C 53 % 68 % 100 % 1017,7 hPa 0,0 l/m 1,8 km/h (1 Bft) SO 135 5 min 0,0 UV-I 15,0 C 30,5 C 1,6 km/h (1 Bft)
12.06.2013 15:40 25,3 C 22,2 C 22,1 C 30,1 C 30,1 C 4,8 C 52 % 62 % 100 % 1017,7 hPa 0,0 l/m 1,3 km/h (1 Bft) O 90 5 min 0,0 UV-I 14,7 C 30,1 C 0,0 km/h (0 Bft)
12.06.2013 15:45 25,1 C 22,2 C 22,3 C 30,6 C 30,6 C 5,5 C 51 % 64 % 100 % 1017,7 hPa 0,0 l/m 1,0 km/h (0 Bft) O-NO 67 5 min 0,0 UV-I 14,2 C 30,6 C 2,1 km/h (1 Bft)
12.06.2013 15:50 24,8 C 22,2 C 22,4 C 30,4 C 30,4 C 5,6 C 51 % 67 % 100 % 1017,7 hPa 0,0 l/m 1,6 km/h (1 Bft) W 270 5 min 0,0 UV-I 14,0 C 30,4 C 2,6 km/h (1 Bft)
12.06.2013 15:55 25,2 C 22,3 C 22,5 C 30,7 C 30,7 C 5,5 C 51 % 67 % 100 % 1017,5 hPa 0,0 l/m 1,8 km/h (1 Bft) S-SW 202 5 min 0,0 UV-I 14,3 C 30,7 C 2,1 km/h (1 Bft)
12.06.2013 16:00 25,2 C 22,3 C 22,0 C 29,1 C 29,1 C 3,9 C 50 % 68 % 100 % 1017,5 hPa 0,0 l/m 1,9 km/h (1 Bft) SW 225 5 min 0,0 UV-I 14,0 C 29,1 C 6,9 km/h (2 Bft)
12.06.2013 16:05 25,0 C 22,3 C 21,8 C 28,0 C 28,0 C 3,0 C 51 % 68 % 79 % 1017,5 hPa 0,0 l/m 2,1 km/h (1 Bft) W 270 0 min 0,0 UV-I 14,1 C 28,0 C 2,3 km/h (1 Bft)
12.06.2013 16:10 24,7 C 22,3 C 21,4 C 26,7 C 26,7 C 2,0 C 50 % 69 % 53 % 1017,5 hPa 0,0 l/m 2,9 km/h (1 Bft) SW 225 0 min 0,0 UV-I 13,6 C 26,7 C 2,9 km/h (1 Bft)
12.06.2013 16:15 24,3 C 22,3 C 21,4 C 26,2 C 26,2 C 1,9 C 50 % 70 % 50 % 1017,4 hPa 0,0 l/m 2,7 km/h (1 Bft) SW 225 0 min 0,0 UV-I 13,2 C 26,2 C 3,5 km/h (1 Bft)
12.06.2013 16:20 24,3 C 22,3 C 21,3 C 25,7 C 25,7 C 1,4 C 51 % 70 % 37 % 1017,4 hPa 0,0 l/m 2,4 km/h (1 Bft) NW 315 0 min 0,0 UV-I 13,5 C 25,7 C 2,4 km/h (1 Bft)
12.06.2013 16:25 24,3 C 22,4 C 21,3 C 25,6 C 25,6 C 1,3 C 52 % 71 % 34 % 1017,4 hPa 0,0 l/m 2,3 km/h (1 Bft) W-SW 247 0 min 0,0 UV-I 13,8 C 25,6 C 2,1 km/h (1 Bft)
12.06.2013 16:30 24,5 C 22,4 C 21,7 C 26,8 C 26,8 C 2,3 C 54 % 68 % 61 % 1017,4 hPa 0,0 l/m 1,4 km/h (1 Bft) W-SW 247 0 min 0,0 UV-I 14,6 C 26,8 C 0,0 km/h (0 Bft)
12.06.2013 16:35 24,9 C 22,4 C 22,0 C 28,4 C 28,4 C 3,5 C 53 % 69 % 92 % 1017,2 hPa 0,0 l/m 0,8 km/h (0 Bft) S-SW 202 5 min 0,0 UV-I 14,6 C 28,4 C 2,7 km/h (1 Bft)
12.06.2013 16:40 25,3 C 22,4 C 21,9 C 29,4 C 29,4 C 4,1 C 50 % 66 % 100 % 1017,2 hPa 0,0 l/m 0,6 km/h (0 Bft) O-SO 112 5 min 0,0 UV-I 14,1 C 29,4 C 0,0 km/h (0 Bft)
12.06.2013 16:45 25,1 C 22,4 C 21,9 C 29,2 C 29,2 C 4,1 C 50 % 65 % 100 % 1017,2 hPa 0,0 l/m 0,5 km/h (0 Bft) N-NW 337 5 min 0,0 UV-I 13,9 C 29,2 C 0,0 km/h (0 Bft)
12.06.2013 16:50 24,8 C 22,5 C 21,9 C 29,1 C 29,1 C 4,3 C 51 % 68 % 100 % 1017,2 hPa 0,0 l/m 0,3 km/h (0 Bft) O-NO 67 5 min 0,0 UV-I 14,0 C 29,1 C 0,0 km/h (0 Bft)
12.06.2013 16:55 24,7 C 22,5 C 21,7 C 29,3 C 29,3 C 4,6 C 53 % 68 % 100 % 1017,4 hPa 0,0 l/m 0,2 km/h (0 Bft) O-NO 67 5 min 0,0 UV-I 14,5 C 29,3 C 0,0 km/h (0 Bft)
12.06.2013 17:00 24,7 C 22,5 C 21,7 C 29,0 C 29,0 C 4,3 C 53 % 68 % 100 % 1017,4 hPa 0,0 l/m 0,2 km/h (0 Bft) O-NO 67 5 min 0,0 UV-I 14,5 C 29,0 C 0,0 km/h (0 Bft)
12.06.2013 17:05 24,5 C 22,5 C 21,6 C 29,4 C 29,4 C 4,9 C 52 % 67 % 100 % 1017,4 hPa 0,0 l/m 0,2 km/h (0 Bft) O-NO 67 5 min 0,0 UV-I 14,0 C 29,4 C 0,0 km/h (0 Bft)
12.06.2013 17:10 24,8 C 22,5 C 21,9 C 30,6 C 30,6 C 5,8 C 52 % 68 % 100 % 1017,4 hPa 0,0 l/m 0,5 km/h (0 Bft) S 180 5 min 0,0 UV-I 14,3 C 30,6 C 0,0 km/h (0 Bft)
12.06.2013 17:15 25,4 C 22,5 C 21,8 C 30,5 C 30,5 C 5,1 C 50 % 68 % 100 % 1017,4 hPa 0,0 l/m 1,9 km/h (1 Bft) S-SW 202 5 min 0,0 UV-I 14,2 C 30,5 C 4,3 km/h (1 Bft)
12.06.2013 17:20 25,7 C 22,5 C 21,9 C 29,3 C 29,3 C 3,6 C 49 % 68 % 95 % 1017,4 hPa 0,0 l/m 3,1 km/h (1 Bft) W-SW 247 5 min 0,0 UV-I 14,2 C 29,3 C 6,4 km/h (2 Bft)
12.06.2013 17:25 25,9 C 22,5 C 21,9 C 29,4 C 29,4 C 3,5 C 49 % 68 % 92 % 1017,4 hPa 0,0 l/m 2,9 km/h (1 Bft) S-SW 202 5 min 0,0 UV-I 14,4 C 29,4 C 4,7 km/h (1 Bft)
12.06.2013 17:30 26,1 C 22,5 C 21,9 C 29,7 C 29,7 C 3,6 C 48 % 67 % 95 % 1017,4 hPa 0,0 l/m 1,4 km/h (1 Bft) SW 225 5 min 0,0 UV-I 14,2 C 29,7 C 3,1 km/h (1 Bft)
12.06.2013 17:35 26,1 C 22,5 C 21,7 C 29,4 C 29,4 C 3,3 C 47 % 68 % 87 % 1017,2 hPa 0,0 l/m 1,1 km/h (1 Bft) W-SW 247 5 min 0,0 UV-I 13,9 C 29,4 C 3,2 km/h (1 Bft)
12.06.2013 17:40 26,0 C 22,5 C 21,7 C 29,2 C 29,2 C 3,2 C 48 % 67 % 84 % 1017,2 hPa 0,0 l/m 0,8 km/h (0 Bft) O-NO 67 0 min 0,0 UV-I 14,1 C 29,2 C 0,0 km/h (0 Bft)
12.06.2013 17:45 25,8 C 22,5 C 21,5 C 29,0 C 29,0 C 3,2 C 48 % 67 % 84 % 1017,2 hPa 0,0 l/m 0,3 km/h (0 Bft) S-SW 202 0 min 0,0 UV-I 13,9 C 29,0 C 3,4 km/h (1 Bft)
12.06.2013 17:50 25,7 C 22,6 C 21,2 C 27,6 C 27,6 C 1,9 C 50 % 68 % 50 % 1017,2 hPa 0,0 l/m 0,3 km/h (0 Bft) W 270 0 min 0,0 UV-I 14,5 C 27,6 C 0,0 km/h (0 Bft)
12.06.2013 17:55 25,5 C 22,6 C 21,3 C 27,2 C 27,2 C 1,7 C 50 % 67 % 45 % 1016,8 hPa 0,0 l/m 0,3 km/h (0 Bft) O-NO 67 0 min 0,0 UV-I 14,3 C 27,2 C 0,0 km/h (0 Bft)
12.06.2013 18:00 25,0 C 22,6 C 21,5 C 28,3 C 28,3 C 3,3 C 51 % 66 % 87 % 1016,8 hPa 0,0 l/m 0,2 km/h (0 Bft) O-NO 67 5 min 0,0 UV-I 14,1 C 28,3 C 0,0 km/h (0 Bft)
12.06.2013 18:05 24,9 C 22,6 C 21,8 C 29,3 C 29,3 C 4,4 C 50 % 64 % 100 % 1016,8 hPa 0,0 l/m 0,2 km/h (0 Bft) NO 45 5 min 0,0 UV-I 13,7 C 29,3 C 0,0 km/h (0 Bft)
12.06.2013 18:10 25,0 C 22,6 C 22,0 C 30,6 C 30,6 C 5,6 C 50 % 66 % 100 % 1016,8 hPa 0,0 l/m 0,5 km/h (0 Bft) S-SW 202 5 min 0,0 UV-I 13,8 C 30,6 C 3,4 km/h (1 Bft)
12.06.2013 18:15 25,4 C 22,7 C 22,0 C 30,8 C 30,8 C 5,4 C 50 % 68 % 100 % 1017,0 hPa 0,0 l/m 1,1 km/h (1 Bft) SW 225 5 min 0,0 UV-I 14,2 C 30,8 C 3,1 km/h (1 Bft)
12.06.2013 18:20 26,0 C 22,6 C 22,0 C 31,0 C 31,0 C 5,0 C 48 % 65 % 100 % 1017,0 hPa 0,0 l/m 1,9 km/h (1 Bft) SO 135 5 min 0,0 UV-I 14,1 C 31,0 C 2,4 km/h (1 Bft)
12.06.2013 18:25 25,9 C 22,6 C 22,3 C 31,1 C 31,1 C 5,2 C 47 % 64 % 100 % 1017,0 hPa 0,0 l/m 1,3 km/h (1 Bft) W-SW 247 5 min 0,0 UV-I 13,7 C 31,1 C 0,0 km/h (0 Bft)
12.06.2013 18:30 25,8 C 22,6 C 22,2 C 31,4 C 31,4 C 5,6 C 48 % 63 % 100 % 1017,0 hPa 0,0 l/m 0,5 km/h (0 Bft) N-NW 337 5 min 0,0 UV-I 13,9 C 31,4 C 3,4 km/h (1 Bft)
12.06.2013 18:35 25,6 C 22,6 C 22,3 C 31,1 C 31,1 C 5,5 C 49 % 65 % 100 % 1017,0 hPa 0,0 l/m 0,2 km/h (0 Bft) W-NW 292 5 min 0,0 UV-I 14,1 C 31,1 C 0,0 km/h (0 Bft)
12.06.2013 18:41 25,5 C 22,6 C 22,1 C 31,3 C 31,3 C 5,8 C 48 % 64 % 100 % 1017,0 hPa 0,0 l/m 0,3 km/h (0 Bft) N 0 6 min 0,0 UV-I 13,7 C 31,3 C 0,0 km/h (0 Bft)
12.06.2013 19:00 25,4 C 22,7 C 21,9 C 29,7 C 29,7 C 4,3 C 49 % 65 % 100 % 1016,9 hPa 0,0 l/m 0,3 km/h (0 Bft) O-NO 67 19 min 0,0 UV-I 13,9 C 29,7 C 0,0 km/h (0 Bft)
12.06.2013 19:05 25,1 C 22,7 C 21,7 C 29,4 C 29,4 C 4,3 C 51 % 66 % 100 % 1016,9 hPa 0,0 l/m 0,0 km/h (0 Bft) NO 45 5 min 0,0 UV-I 14,2 C 29,4 C 0,0 km/h (0 Bft)
12.06.2013 19:10 24,8 C 22,7 C 21,7 C 29,6 C 29,6 C 4,8 C 50 % 67 % 100 % 1016,9 hPa 0,0 l/m 0,2 km/h (0 Bft) W-NW 292 5 min 0,0 UV-I 13,7 C 29,6 C 1,8 km/h (1 Bft)
12.06.2013 19:15 25,1 C 22,7 C 21,7 C 29,4 C 29,4 C 4,3 C 50 % 69 % 100 % 1016,6 hPa 0,0 l/m 0,6 km/h (0 Bft) W-SW 247 5 min 0,0 UV-I 13,9 C 29,4 C 0,0 km/h (0 Bft)
12.06.2013 19:20 25,5 C 22,7 C 21,6 C 29,1 C 29,1 C 3,6 C 51 % 69 % 95 % 1016,6 hPa 0,0 l/m 0,6 km/h (0 Bft) W-SW 247 5 min 0,0 UV-I 14,6 C 29,1 C 0,0 km/h (0 Bft)
12.06.2013 19:25 25,3 C 22,8 C 21,5 C 29,1 C 29,1 C 3,8 C 51 % 69 % 100 % 1016,6 hPa 0,0 l/m 0,2 km/h (0 Bft) O-NO 67 5 min 0,0 UV-I 14,4 C 29,1 C 0,0 km/h (0 Bft)
12.06.2013 19:30 24,9 C 22,8 C 21,4 C 28,5 C 28,5 C 3,6 C 51 % 68 % 95 % 1016,6 hPa 0,0 l/m 0,0 km/h (0 Bft) N-NO 22 5 min 0,0 UV-I 14,1 C 28,5 C 0,0 km/h (0 Bft)
12.06.2013 19:35 24,5 C 22,8 C 21,3 C 27,9 C 27,9 C 3,4 C 51 % 68 % 89 % 1016,8 hPa 0,0 l/m 0,0 km/h (0 Bft) NO 45 5 min 0,0 UV-I 13,7 C 27,9 C 0,0 km/h (0 Bft)
12.06.2013 19:40 24,1 C 22,8 C 21,0 C 26,9 C 26,9 C 2,8 C 50 % 70 % 74 % 1016,8 hPa 0,0 l/m 0,0 km/h (0 Bft) O-NO 67 5 min 0,0 UV-I 13,0 C 26,9 C 0,0 km/h (0 Bft)
12.06.2013 19:45 23,8 C 22,8 C 20,8 C 26,2 C 26,2 C 2,4 C 52 % 71 % 63 % 1016,8 hPa 0,0 l/m 0,0 km/h (0 Bft) O-NO 67 5 min 0,0 UV-I 13,3 C 26,2 C 0,0 km/h (0 Bft)
12.06.2013 19:50 23,4 C 22,8 C 20,5 C 25,4 C 25,4 C 2,0 C 52 % 71 % 53 % 1016,8 hPa 0,0 l/m 0,0 km/h (0 Bft) O-NO 67 5 min 0,0 UV-I 13,0 C 25,4 C 0,0 km/h (0 Bft)
12.06.2013 19:55 23,1 C 22,8 C 20,3 C 24,7 C 24,7 C 1,6 C 53 % 71 % 42 % 1016,8 hPa 0,0 l/m 0,0 km/h (0 Bft) O-NO 67 0 min 0,0 UV-I 13,0 C 24,7 C 0,0 km/h (0 Bft)
12.06.2013 20:00 22,7 C 22,8 C 20,1 C 23,8 C 23,8 C 1,1 C 55 % 72 % 29 % 1016,8 hPa 0,0 l/m 0,0 km/h (0 Bft) O-NO 67 0 min 0,0 UV-I 13,2 C 23,8 C 0,0 km/h (0 Bft)
12.06.2013 20:05 22,5 C 22,8 C 20,0 C 23,1 C 23,1 C 0,6 C 58 % 74 % 16 % 1016,8 hPa 0,0 l/m 0,0 km/h (0 Bft) O-NO 67 0 min 0,0 UV-I 13,8 C 23,1 C 0,0 km/h (0 Bft)
12.06.2013 20:10 22,3 C 22,8 C 19,7 C 22,3 C 22,3 C 0,0 C 59 % 75 % 0 % 1016,8 hPa 0,0 l/m 0,0 km/h (0 Bft) O-NO 67 0 min 0,0 UV-I 13,9 C 22,3 C 0,0 km/h (0 Bft)
12.06.2013 20:15 22,1 C 22,8 C 19,6 C 22,0 C 21,9 C 0,0 C 61 % 75 % 0 % 1016,9 hPa 0,0 l/m 0,0 km/h (0 Bft) O-NO 67 0 min 0,0 UV-I 14,2 C 21,9 C 0,0 km/h (0 Bft)
12.06.2013 20:20 21,7 C 22,8 C 19,5 C 21,6 C 21,3 C 0,0 C 61 % 76 % 0 % 1016,9 hPa 0,0 l/m 0,0 km/h (0 Bft) O-NO 67 0 min 0,0 UV-I 13,8 C 21,3 C 0,0 km/h (0 Bft)
12.06.2013 20:25 21,4 C 22,8 C 19,2 C 21,2 C 20,8 C 0,0 C 63 % 76 % 0 % 1016,9 hPa 0,0 l/m 0,0 km/h (0 Bft) O-NO 67 0 min 0,0 UV-I 14,1 C 20,8 C 0,0 km/h (0 Bft)
12.06.2013 20:30 21,1 C 22,9 C 19,0 C 20,8 C 20,3 C 0,0 C 65 % 77 % 0 % 1016,9 hPa 0,0 l/m 0,0 km/h (0 Bft) O-NO 67 0 min 0,0 UV-I 14,3 C 20,3 C 0,0 km/h (0 Bft)
12.06.2013 20:35 20,9 C 22,9 C 18,9 C 20,6 C 20,0 C 0,0 C 66 % 77 % 0 % 1016,6 hPa 0,0 l/m 0,0 km/h (0 Bft) O-NO 67 0 min 0,0 UV-I 14,3 C 20,0 C 0,0 km/h (0 Bft)
12.06.2013 20:40 20,5 C 23,0 C 18,7 C 20,2 C 19,6 C 0,0 C 67 % 77 % 0 % 1016,6 hPa 0,0 l/m 0,0 km/h (0 Bft) O-NO 67 0 min 0,0 UV-I 14,2 C 19,6 C 0,0 km/h (0 Bft)
12.06.2013 20:45 20,4 C 23,0 C 18,7 C 20,0 C 19,3 C 0,0 C 68 % 78 % 0 % 1016,6 hPa 0,0 l/m 0,0 km/h (0 Bft) W 270 0 min 0,0 UV-I 14,3 C 19,3 C 0,0 km/h (0 Bft)
12.06.2013 20:50 20,1 C 23,1 C 18,5 C 19,7 C 18,9 C 0,0 C 69 % 79 % 0 % 1016,6 hPa 0,0 l/m 0,0 km/h (0 Bft) W-SW 247 0 min 0,0 UV-I 14,2 C 18,9 C 0,0 km/h (0 Bft)
12.06.2013 20:55 20,0 C 23,0 C 18,3 C 19,5 C 18,6 C 0,0 C 70 % 79 % 0 % 1016,8 hPa 0,0 l/m 0,0 km/h (0 Bft) W-SW 247 0 min 0,0 UV-I 14,4 C 18,6 C 0,0 km/h (0 Bft)
12.06.2013 21:00 19,7 C 23,0 C 18,1 C 19,2 C 18,2 C 0,0 C 71 % 79 % 0 % 1016,8 hPa 0,0 l/m 0,0 km/h (0 Bft) W-SW 247 0 min 0,0 UV-I 14,3 C 18,2 C 0,0 km/h (0 Bft)
12.06.2013 21:05 19,5 C 23,1 C 17,9 C 19,0 C 17,9 C 0,0 C 71 % 79 % 0 % 1016,8 hPa 0,0 l/m 0,0 km/h (0 Bft) W-SW 247 0 min 0,0 UV-I 14,1 C 17,9 C 0,0 km/h (0 Bft)
12.06.2013 21:10 19,3 C 23,1 C 17,7 C 18,7 C 17,6 C 0,0 C 72 % 79 % 0 % 1016,8 hPa 0,0 l/m 0,0 km/h (0 Bft) W-SW 247 0 min 0,0 UV-I 14,1 C 17,6 C 0,0 km/h (0 Bft)
12.06.2013 21:15 19,1 C 23,1 C 17,6 C 18,5 C 17,3 C 0,0 C 72 % 79 % 0 % 1017,2 hPa 0,0 l/m 0,0 km/h (0 Bft) W-SW 247 0 min 0,0 UV-I 13,9 C 17,3 C 0,0 km/h (0 Bft)
12.06.2013 21:20 18,7 C 23,1 C 17,5 C 18,1 C 16,9 C 0,0 C 74 % 80 % 0 % 1017,2 hPa 0,0 l/m 0,0 km/h (0 Bft) W-SW 247 0 min 0,0 UV-I 14,0 C 16,9 C 0,0 km/h (0 Bft)
12.06.2013 21:25 18,7 C 23,1 C 17,3 C 18,0 C 16,7 C 0,0 C 75 % 80 % 0 % 1017,2 hPa 0,0 l/m 0,0 km/h (0 Bft) W-SW 247 0 min 0,0 UV-I 14,2 C 16,7 C 0,0 km/h (0 Bft)
12.06.2013 21:30 18,3 C 23,1 C 17,1 C 17,7 C 16,5 C 0,0 C 75 % 80 % 0 % 1017,2 hPa 0,0 l/m 0,0 km/h (0 Bft) W-SW 247 0 min 0,0 UV-I 13,8 C 16,5 C 0,0 km/h (0 Bft)
12.06.2013 21:35 18,1 C 23,1 C 16,9 C 17,5 C 16,4 C 0,0 C 76 % 80 % 0 % 1017,1 hPa 0,0 l/m 0,0 km/h (0 Bft) W-SW 247 0 min 0,0 UV-I 13,8 C 16,4 C 0,0 km/h (0 Bft)
12.06.2013 21:40 17,9 C 23,1 C 16,8 C 17,3 C 16,1 C 0,0 C 76 % 81 % 0 % 1017,1 hPa 0,0 l/m 0,2 km/h (0 Bft) W-SW 247 0 min 0,0 UV-I 13,6 C 16,1 C 0,0 km/h (0 Bft)
12.06.2013 21:45 17,7 C 23,1 C 16,7 C 17,1 C 15,9 C 0,0 C 77 % 81 % 0 % 1017,1 hPa 0,0 l/m 0,2 km/h (0 Bft) SW 225 0 min 0,0 UV-I 13,6 C 15,9 C 1,6 km/h (1 Bft)
12.06.2013 21:50 17,5 C 23,1 C 16,4 C 16,9 C 15,6 C 0,0 C 78 % 81 % 0 % 1017,1 hPa 0,0 l/m 0,2 km/h (0 Bft) N-NW 337 0 min 0,0 UV-I 13,6 C 15,6 C 0,0 km/h (0 Bft)
12.06.2013 21:55 17,3 C 23,2 C 16,4 C 16,7 C 15,5 C 0,0 C 78 % 82 % 0 % 1017,2 hPa 0,0 l/m 0,2 km/h (0 Bft) O-NO 67 0 min 0,0 UV-I 13,4 C 15,5 C 0,0 km/h (0 Bft)
12.06.2013 22:00 17,0 C 23,2 C 16,3 C 16,4 C 15,3 C 0,0 C 79 % 81 % 0 % 1017,2 hPa 0,0 l/m 0,0 km/h (0 Bft) O-NO 67 0 min 0,0 UV-I 13,3 C 15,3 C 0,0 km/h (0 Bft)
12.06.2013 22:05 16,9 C 23,2 C 16,1 C 16,3 C 15,2 C 0,0 C 79 % 81 % 0 % 1017,2 hPa 0,0 l/m 0,0 km/h (0 Bft) O-NO 67 0 min 0,0 UV-I 13,2 C 15,2 C 0,0 km/h (0 Bft)
12.06.2013 22:10 16,7 C 23,4 C 16,0 C 16,2 C 15,1 C 0,0 C 80 % 81 % 0 % 1017,2 hPa 0,0 l/m 0,0 km/h (0 Bft) N-NO 22 0 min 0,0 UV-I 13,2 C 15,1 C 0,0 km/h (0 Bft)
12.06.2013 22:15 16,6 C 23,4 C 15,9 C 16,1 C 15,1 C 0,0 C 81 % 82 % 0 % 1017,4 hPa 0,0 l/m 0,0 km/h (0 Bft) O-NO 67 0 min 0,0 UV-I 13,3 C 15,1 C 0,0 km/h (0 Bft)
12.06.2013 22:20 16,3 C 23,4 C 15,8 C 15,8 C 14,8 C 0,0 C 81 % 82 % 0 % 1017,4 hPa 0,0 l/m 0,0 km/h (0 Bft) O-NO 67 0 min 0,0 UV-I 13,0 C 14,8 C 0,0 km/h (0 Bft)
12.06.2013 22:25 16,3 C 23,3 C 15,7 C 15,8 C 14,7 C 0,0 C 81 % 82 % 0 % 1017,4 hPa 0,0 l/m 0,0 km/h (0 Bft) O-NO 67 0 min 0,0 UV-I 13,0 C 14,7 C 0,0 km/h (0 Bft)
12.06.2013 22:30 16,0 C 23,3 C 15,6 C 15,5 C 14,5 C 0,0 C 82 % 82 % 0 % 1017,4 hPa 0,0 l/m 0,0 km/h (0 Bft) O-NO 67 0 min 0,0 UV-I 12,9 C 14,5 C 0,0 km/h (0 Bft)
12.06.2013 22:35 15,9 C 23,3 C 15,6 C 15,4 C 14,4 C 0,0 C 82 % 82 % 0 % 1017,4 hPa 0,0 l/m 0,0 km/h (0 Bft) O-NO 67 0 min 0,0 UV-I 12,8 C 14,4 C 0,0 km/h (0 Bft)
12.06.2013 22:40 15,7 C 23,4 C 15,5 C 15,2 C 14,2 C 0,0 C 82 % 82 % 0 % 1017,4 hPa 0,0 l/m 0,0 km/h (0 Bft) O-NO 67 0 min 0,0 UV-I 12,6 C 14,2 C 0,0 km/h (0 Bft)
12.06.2013 22:45 15,5 C 23,3 C 15,4 C 15,0 C 14,1 C 0,0 C 82 % 82 % 0 % 1017,4 hPa 0,0 l/m 0,0 km/h (0 Bft) W-SW 247 0 min 0,0 UV-I 12,4 C 14,1 C 0,0 km/h (0 Bft)
12.06.2013 22:50 15,3 C 23,3 C 15,3 C 14,9 C 14,0 C 0,0 C 83 % 82 % 0 % 1017,4 hPa 0,0 l/m 0,0 km/h (0 Bft) W-SW 247 0 min 0,0 UV-I 12,4 C 14,0 C 0,0 km/h (0 Bft)
12.06.2013 22:55 15,2 C 23,4 C 15,1 C 14,8 C 13,9 C 0,0 C 83 % 82 % 0 % 1017,4 hPa 0,0 l/m 0,0 km/h (0 Bft) O-NO 67 0 min 0,0 UV-I 12,3 C 13,9 C 0,0 km/h (0 Bft)
12.06.2013 23:00 14,8 C 23,4 C 15,1 C 14,5 C 13,9 C 0,0 C 84 % 82 % 0 % 1017,4 hPa 0,0 l/m 0,0 km/h (0 Bft) NW 315 0 min 0,0 UV-I 12,1 C 13,9 C 0,0 km/h (0 Bft)
12.06.2013 23:05 14,7 C 23,4 C 15,0 C 14,4 C 13,8 C 0,0 C 83 % 82 % 0 % 1017,4 hPa 0,0 l/m 0,0 km/h (0 Bft) NW 315 0 min 0,0 UV-I 11,8 C 13,8 C 0,0 km/h (0 Bft)
12.06.2013 23:10 14,5 C 23,3 C 14,9 C 14,2 C 13,7 C 0,0 C 84 % 82 % 0 % 1017,4 hPa 0,0 l/m 0,0 km/h (0 Bft) O-NO 67 0 min 0,0 UV-I 11,8 C 13,7 C 0,0 km/h (0 Bft)
12.06.2013 23:15 14,4 C 23,4 C 14,9 C 14,1 C 13,6 C 0,0 C 84 % 82 % 0 % 1017,4 hPa 0,0 l/m 0,0 km/h (0 Bft) N-NO 22 0 min 0,0 UV-I 11,7 C 13,6 C 0,0 km/h (0 Bft)
12.06.2013 23:20 14,2 C 23,4 C 14,9 C 14,0 C 13,5 C 0,0 C 84 % 82 % 0 % 1017,4 hPa 0,0 l/m 0,0 km/h (0 Bft) N-NO 22 0 min 0,0 UV-I 11,5 C 13,5 C 0,0 km/h (0 Bft)
12.06.2013 23:25 14,1 C 23,4 C 14,8 C 13,9 C 13,4 C 0,0 C 84 % 82 % 0 % 1017,4 hPa 0,0 l/m 0,0 km/h (0 Bft) N-NO 22 0 min 0,0 UV-I 11,4 C 13,4 C 0,0 km/h (0 Bft)
12.06.2013 23:30 13,9 C 23,3 C 14,6 C 13,7 C 13,4 C 0,0 C 84 % 82 % 0 % 1017,4 hPa 0,0 l/m 0,0 km/h (0 Bft) SW 225 0 min 0,0 UV-I 11,2 C 13,4 C 0,0 km/h (0 Bft)
12.06.2013 23:35 13,9 C 23,3 C 14,6 C 13,7 C 13,3 C 0,0 C 84 % 82 % 0 % 1017,8 hPa 0,0 l/m 0,0 km/h (0 Bft) NW 315 0 min 0,0 UV-I 11,2 C 13,3 C 0,0 km/h (0 Bft)
12.06.2013 23:40 13,6 C 23,4 C 14,5 C 13,5 C 13,4 C 0,0 C 85 % 82 % 0 % 1017,8 hPa 0,0 l/m 0,0 km/h (0 Bft) O 90 0 min 0,0 UV-I 11,1 C 13,4 C 0,0 km/h (0 Bft)
12.06.2013 23:45 13,6 C 23,4 C 14,5 C 13,5 C 13,4 C 0,0 C 85 % 82 % 0 % 1017,8 hPa 0,0 l/m 0,0 km/h (0 Bft) O 90 0 min 0,0 UV-I 11,1 C 13,4 C 0,0 km/h (0 Bft)
12.06.2013 23:50 13,4 C 23,4 C 14,4 C 13,4 C 13,4 C 0,0 C 86 % 82 % 0 % 1017,8 hPa 0,0 l/m 0,0 km/h (0 Bft) O-NO 67 0 min 0,0 UV-I 11,1 C 13,4 C 0,0 km/h (0 Bft)
12.06.2013 23:55 13,5 C 23,4 C 14,4 C 13,5 C 13,5 C 0,0 C 86 % 82 % 0 % 1017,6 hPa 0,0 l/m 0,0 km/h (0 Bft) O-NO 67 0 min 0,0 UV-I 11,2 C 13,5 C 0,0 km/h (0 Bft)
_ Min-Zeit 05:35 09:10 05:25 05:00 05:00 00:00 17:35 15:40 00:00 00:00 - 00:00 - - - 00:00 05:20 05:00 00:00
Minimum _ 8,2 C 21,3 C 10,2 C 8,7 C 8,7 C 0,0 C 47 % 62 % 0 % 1016,5 hPa - 0,0 km/h (0 Bft) - - - 0,0 UV-I 6,6 C 8,7 C 0,0 km/h (0 Bft)
_ Max-Zeit 17:30 22:10 15:55 18:30 18:30 08:35 07:40 04:40 07:00 09:15 00:00 13:25 - - 07:00 06:30 09:25 18:30 12:00
Maximum _ 26,1 C 23,4 C 22,5 C 31,4 C 31,4 C 9,8 C 93 % 85 % 100 % 1018,8 hPa 0,0 l/m 3,7 km/h
O-NO (1 Bft)
- - 19 min 0,3 UV-I 15,5 C 31,4 C 9,7 km/h
S (2 Bft)
Durchschnitt _ 17,5 C 22,3 C 16,6 C 20,7 C 20,6 C 3,2 C 72 % 78 % 53 % 1017,6 hPa #0,0 l/m 0,6 km/h (0 Bft) SW - #11:19 h 0,1 UV-I 11,9 C 20,6 C 1,0 km/h (0 Bft)
2013 www.wetterstation-wechselburg.de